Time;durP1;ratioP1;P1;durP2;ratioP2;P2;SDS_P1;SDS_P2;PMS_P1;PMS_P2;Temp;Humidity;BMP_temperature;BMP_pressure;BME280_temperature;BME280_humidity;BME280_pressure;Samples;Min_cycle;Max_cycle;Signal;HPM_P1;HPM_P2
2023/05/23 00:01:36;;;;;;;8.00;7.38;;;;;;;;;;4194292;28;20052;-57
2023/05/23 00:03:57;;;;;;;9.30;8.55;;;;;;;;;;4191999;28;20366;-57
2023/05/23 00:06:22;;;;;;;8.10;7.50;;;;;;;;;;4192613;28;20080;-57
2023/05/23 00:08:43;;;;;;;8.90;8.60;;;;;;;;;;4193804;28;20071;-57
2023/05/23 00:11:03;;;;;;;8.23;7.70;;;;;;;;;;4192045;28;20079;-57
2023/05/23 00:13:23;;;;;;;8.45;7.82;;;;;;;;;;4189944;28;20040;-57
2023/05/23 00:15:44;;;;;;;9.25;8.88;;;;;;;;;;4182977;28;20068;-56
2023/05/23 00:18:04;;;;;;;8.23;7.82;;;;;;;;;;4193240;28;20052;-57
2023/05/23 00:20:24;;;;;;;8.65;8.45;;;;;;;;;;4192009;28;20109;-56
2023/05/23 00:22:47;;;;;;;8.40;7.90;;;;;;;;;;4191240;28;20102;-57
2023/05/23 00:25:08;;;;;;;8.03;7.63;;;;;;;;;;4193070;28;20044;-57
2023/05/23 00:27:28;;;;;;;8.10;7.75;;;;;;;;;;4192992;28;20697;-57
2023/05/23 00:29:48;;;;;;;9.35;8.77;;;;;;;;;;4191861;28;20044;-57
2023/05/23 00:32:08;;;;;;;9.00;8.23;;;;;;;;;;4191388;28;20068;-57
2023/05/23 00:34:28;;;;;;;10.80;10.02;;;;;;;;;;4192464;28;20090;-57
2023/05/23 00:36:49;;;;;;;9.43;8.93;;;;;;;;;;4192245;28;20328;-56
2023/05/23 00:39:17;;;;;;;9.05;8.55;;;;;;;;;;4192352;28;20056;-56
2023/05/23 00:41:38;;;;;;;9.95;9.45;;;;;;;;;;4176801;28;20044;-56
2023/05/23 00:43:58;;;;;;;9.95;9.13;;;;;;;;;;4192179;28;20466;-57
2023/05/23 00:46:19;;;;;;;9.68;9.15;;;;;;;;;;4189719;28;20083;-56
2023/05/23 00:48:39;;;;;;;8.00;7.53;;;;;;;;;;4189766;28;20091;-56
2023/05/23 00:51:00;;;;;;;8.57;8.38;;;;;;;;;;4191541;28;20229;-56
2023/05/23 00:53:21;;;;;;;8.10;7.75;;;;;;;;;;4190809;28;20048;-57
2023/05/23 00:55:41;;;;;;;8.95;8.65;;;;;;;;;;4189337;28;20067;-57
2023/05/23 00:58:02;;;;;;;9.77;9.38;;;;;;;;;;4188467;28;20048;-57
2023/05/23 01:00:23;;;;;;;9.35;8.93;;;;;;;;;;4190079;28;20442;-57
2023/05/23 01:02:45;;;;;;;9.50;9.07;;;;;;;;;;4190221;28;20068;-57
2023/05/23 01:05:05;;;;;;;10.63;9.93;;;;;;;;;;4189715;28;20075;-57
2023/05/23 01:07:26;;;;;;;9.27;8.95;;;;;;;;;;4189186;28;20124;-56
2023/05/23 01:09:46;;;;;;;10.23;9.30;;;;;;;;;;4191706;28;20083;-56
2023/05/23 01:12:13;;;;;;;9.98;9.60;;;;;;;;;;4189309;28;20044;-56
2023/05/23 01:14:44;;;;;;;9.73;9.43;;;;;;;;;;4191271;28;20112;-56
2023/05/23 01:17:10;;;;;;;9.90;9.18;;;;;;;;;;4191017;28;20044;-56
2023/05/23 01:19:30;;;;;;;10.40;9.95;;;;;;;;;;4191774;28;20048;-57
2023/05/23 01:21:53;;;;;;;8.43;8.27;;;;;;;;;;4190333;28;20052;-56
2023/05/23 01:24:22;;;;;;;10.30;9.73;;;;;;;;;;4192358;28;20075;-56
2023/05/23 01:26:55;;;;;;;9.27;8.90;;;;;;;;;;4191003;28;20055;-56
2023/05/23 01:29:22;;;;;;;11.23;9.18;;;;;;;;;;4192746;28;20123;-56
2023/05/23 01:31:46;;;;;;;7.88;7.68;;;;;;;;;;4191612;28;20087;-57
2023/05/23 01:34:07;;;;;;;9.63;8.80;;;;;;;;;;4191463;28;20052;-56
2023/05/23 01:36:27;;;;;;;9.48;8.75;;;;;;;;;;4190914;28;20056;-57
2023/05/23 01:38:48;;;;;;;9.35;9.05;;;;;;;;;;4191815;28;20044;-56
2023/05/23 01:41:08;;;;;;;9.23;8.93;;;;;;;;;;4191501;28;20258;-57
2023/05/23 01:43:28;;;;;;;9.35;9.02;;;;;;;;;;4191421;28;20379;-57
2023/05/23 01:45:48;;;;;;;10.60;9.73;;;;;;;;;;4192012;28;20048;-57
2023/05/23 01:48:10;;;;;;;8.50;8.30;;;;;;;;;;4190647;28;20535;-56
2023/05/23 01:50:32;;;;;;;9.07;8.65;;;;;;;;;;4192681;28;20047;-57
2023/05/23 01:52:53;;;;;;;9.00;8.60;;;;;;;;;;4189510;28;20083;-56
2023/05/23 01:55:14;;;;;;;9.02;8.57;;;;;;;;;;4192434;28;20124;-56
2023/05/23 01:57:36;;;;;;;8.77;8.38;;;;;;;;;;4190802;28;20087;-56
2023/05/23 01:59:57;;;;;;;9.45;9.25;;;;;;;;;;4192838;28;20236;-57
2023/05/23 02:02:17;;;;;;;9.43;8.98;;;;;;;;;;4190310;28;20043;-56
2023/05/23 02:04:37;;;;;;;9.88;8.90;;;;;;;;;;4176044;28;20076;-57
2023/05/23 02:06:57;;;;;;;8.63;8.23;;;;;;;;;;4191680;28;20116;-56
2023/05/23 02:09:17;;;;;;;9.43;9.07;;;;;;;;;;4176547;28;20047;-56
2023/05/23 02:11:38;;;;;;;9.18;8.70;;;;;;;;;;4190556;28;20410;-56
2023/05/23 02:13:58;;;;;;;10.98;10.27;;;;;;;;;;4190215;28;20376;-56
2023/05/23 02:16:18;;;;;;;9.25;9.00;;;;;;;;;;4191435;28;20102;-56
2023/05/23 02:18:38;;;;;;;10.13;9.70;;;;;;;;;;4190876;28;20254;-56
2023/05/23 02:20:58;;;;;;;8.40;8.10;;;;;;;;;;4189416;28;20398;-57
2023/05/23 02:23:19;;;;;;;9.40;8.90;;;;;;;;;;4189287;28;20095;-56
2023/05/23 02:25:39;;;;;;;8.82;8.32;;;;;;;;;;4189488;28;20098;-56
2023/05/23 02:27:59;;;;;;;7.70;7.60;;;;;;;;;;4189937;28;20086;-56
2023/05/23 02:30:19;;;;;;;8.80;8.50;;;;;;;;;;4189953;28;20373;-56
2023/05/23 02:32:39;;;;;;;8.73;8.43;;;;;;;;;;4188550;28;20095;-57
2023/05/23 02:35:00;;;;;;;8.98;8.57;;;;;;;;;;4189885;28;20079;-56
2023/05/23 02:37:21;;;;;;;9.98;9.18;;;;;;;;;;4173281;28;20074;-57
2023/05/23 02:39:41;;;;;;;8.50;8.10;;;;;;;;;;4188344;28;20056;-56
2023/05/23 02:42:01;;;;;;;9.38;9.15;;;;;;;;;;4189245;28;20074;-56
2023/05/23 02:44:21;;;;;;;9.85;9.35;;;;;;;;;;4189001;28;20071;-56
2023/05/23 02:46:42;;;;;;;8.38;8.18;;;;;;;;;;4189854;28;20083;-57
2023/05/23 02:49:02;;;;;;;8.40;8.10;;;;;;;;;;4189540;28;20047;-56
2023/05/23 02:51:22;;;;;;;9.18;8.70;;;;;;;;;;4192586;28;20048;-56
2023/05/23 02:53:42;;;;;;;9.50;8.90;;;;;;;;;;4192083;28;20082;-56
2023/05/23 02:56:03;;;;;;;9.25;8.80;;;;;;;;;;4189126;28;20056;-56
2023/05/23 02:58:24;;;;;;;7.88;7.63;;;;;;;;;;4190842;28;20048;-56
2023/05/23 03:00:44;;;;;;;8.77;8.25;;;;;;;;;;4192487;28;20064;-56
2023/05/23 03:03:04;;;;;;;10.68;9.63;;;;;;;;;;4193338;28;20330;-56
2023/05/23 03:05:25;;;;;;;8.20;8.00;;;;;;;;;;4189284;28;20048;-56
2023/05/23 03:07:45;;;;;;;9.45;8.93;;;;;;;;;;4190814;28;20108;-56
2023/05/23 03:10:05;;;;;;;8.27;7.88;;;;;;;;;;4192996;28;20418;-56
2023/05/23 03:12:27;;;;;;;8.75;8.43;;;;;;;;;;4193533;28;20059;-57
2023/05/23 03:14:48;;;;;;;8.90;8.40;;;;;;;;;;4189714;28;20109;-56
2023/05/23 03:17:08;;;;;;;8.95;8.75;;;;;;;;;;4191417;28;20101;-56
2023/05/23 03:19:28;;;;;;;10.52;10.13;;;;;;;;;;4193464;28;20051;-56
2023/05/23 03:21:51;;;;;;;8.60;8.30;;;;;;;;;;4193718;28;20083;-56
2023/05/23 03:24:10;;;;;;;8.70;8.13;;;;;;;;;;4189886;28;20055;-57
2023/05/23 03:26:31;;;;;;;8.63;8.27;;;;;;;;;;4192281;28;20363;-56
2023/05/23 03:28:51;;;;;;;8.98;8.77;;;;;;;;;;4192932;28;20086;-56
2023/05/23 03:31:11;;;;;;;8.93;8.63;;;;;;;;;;4193336;28;20079;-56
2023/05/23 03:33:31;;;;;;;9.00;8.70;;;;;;;;;;4193267;28;20044;-56
2023/05/23 03:35:51;;;;;;;8.27;8.07;;;;;;;;;;4194989;28;20143;-56
2023/05/23 03:38:12;;;;;;;8.98;8.45;;;;;;;;;;4179032;28;20043;-56
2023/05/23 03:40:32;;;;;;;9.45;9.00;;;;;;;;;;4189242;28;20048;-56
2023/05/23 03:43:05;;;;;;;9.73;9.30;;;;;;;;;;4193008;28;20055;-57
2023/05/23 03:45:25;;;;;;;9.32;8.82;;;;;;;;;;4192334;28;20052;-56
2023/05/23 03:47:45;;;;;;;8.32;7.97;;;;;;;;;;4191582;28;20043;-56
2023/05/23 03:50:06;;;;;;;9.48;8.98;;;;;;;;;;4191734;28;20358;-56
2023/05/23 03:52:26;;;;;;;9.07;8.82;;;;;;;;;;4191995;28;20068;-56
2023/05/23 03:54:46;;;;;;;9.07;8.38;;;;;;;;;;4191624;28;20124;-56
2023/05/23 03:57:07;;;;;;;8.48;8.18;;;;;;;;;;4192382;28;20087;-56
2023/05/23 03:59:27;;;;;;;9.07;8.77;;;;;;;;;;4191956;28;20086;-56
2023/05/23 04:01:47;;;;;;;9.15;8.77;;;;;;;;;;4192288;28;20083;-56
2023/05/23 04:04:07;;;;;;;8.93;8.57;;;;;;;;;;4192132;28;20044;-56
2023/05/23 04:06:30;;;;;;;8.43;8.23;;;;;;;;;;4191764;28;20075;-57
2023/05/23 04:08:50;;;;;;;9.35;9.05;;;;;;;;;;4192331;28;20048;-56
2023/05/23 04:11:10;;;;;;;9.10;8.68;;;;;;;;;;4192057;28;20083;-56
2023/05/23 04:13:32;;;;;;;9.32;8.75;;;;;;;;;;4191831;28;20370;-56
2023/05/23 04:15:54;;;;;;;8.02;7.93;;;;;;;;;;4191676;28;20048;-56
2023/05/23 04:18:16;;;;;;;10.23;9.77;;;;;;;;;;4191560;28;20047;-56
2023/05/23 04:20:36;;;;;;;9.40;9.10;;;;;;;;;;4190772;28;20367;-56
2023/05/23 04:22:56;;;;;;;9.88;9.57;;;;;;;;;;4190252;28;20078;-57
2023/05/23 04:25:20;;;;;;;9.32;9.07;;;;;;;;;;4190448;28;20113;-56
2023/05/23 04:27:40;;;;;;;9.02;8.35;;;;;;;;;;4192871;28;20079;-56
2023/05/23 04:30:00;;;;;;;8.93;8.48;;;;;;;;;;4194012;28;20040;-56
2023/05/23 04:32:21;;;;;;;8.88;8.20;;;;;;;;;;4192104;28;20236;-56
2023/05/23 04:34:43;;;;;;;9.63;9.32;;;;;;;;;;4190813;28;20147;-57
2023/05/23 04:37:03;;;;;;;8.38;7.90;;;;;;;;;;4192892;28;20044;-57
2023/05/23 04:39:24;;;;;;;6.75;6.65;;;;;;;;;;4194499;28;20079;-56
2023/05/23 04:41:45;;;;;;;8.50;7.97;;;;;;;;;;4192281;28;20059;-57
2023/05/23 04:44:05;;;;;;;8.25;7.90;;;;;;;;;;4189553;28;20048;-56
2023/05/23 04:46:25;;;;;;;8.80;8.02;;;;;;;;;;4193665;28;20051;-56
2023/05/23 04:48:45;;;;;;;8.48;8.25;;;;;;;;;;4194420;28;20052;-56
2023/05/23 04:51:07;;;;;;;8.68;8.32;;;;;;;;;;4175000;28;20429;-57
2023/05/23 04:53:27;;;;;;;8.40;8.07;;;;;;;;;;4191589;28;20083;-56
2023/05/23 04:55:47;;;;;;;8.52;8.38;;;;;;;;;;4193331;28;20219;-56
2023/05/23 04:58:08;;;;;;;7.95;7.78;;;;;;;;;;4194269;28;20056;-57
2023/05/23 05:00:29;;;;;;;10.65;10.18;;;;;;;;;;4190787;28;20363;-57
2023/05/23 05:02:49;;;;;;;9.65;9.27;;;;;;;;;;4191876;28;20071;-56
2023/05/23 05:05:10;;;;;;;9.75;9.35;;;;;;;;;;4193325;28;20052;-57
2023/05/23 05:07:30;;;;;;;9.90;9.32;;;;;;;;;;4191790;28;20052;-57
2023/05/23 05:09:50;;;;;;;11.00;10.05;;;;;;;;;;4190185;28;20068;-57
2023/05/23 05:12:11;;;;;;;9.63;8.93;;;;;;;;;;4189491;28;20236;-57
2023/05/23 05:14:31;;;;;;;10.82;10.38;;;;;;;;;;4190570;28;20073;-58
2023/05/23 05:16:51;;;;;;;9.63;9.23;;;;;;;;;;4190533;28;20048;-59
2023/05/23 05:19:12;;;;;;;10.10;9.32;;;;;;;;;;4188551;28;20296;-58
2023/05/23 05:21:32;;;;;;;9.02;8.60;;;;;;;;;;4189810;28;20423;-58
2023/05/23 05:23:53;;;;;;;10.45;9.88;;;;;;;;;;4191155;28;20095;-58
2023/05/23 05:26:13;;;;;;;9.32;8.90;;;;;;;;;;4191365;28;20244;-58
2023/05/23 05:28:33;;;;;;;9.13;8.60;;;;;;;;;;4190925;28;20364;-58
2023/05/23 05:30:54;;;;;;;7.85;7.35;;;;;;;;;;4191511;28;20048;-58
2023/05/23 05:33:14;;;;;;;8.68;8.38;;;;;;;;;;4190722;28;20087;-58
2023/05/23 05:35:37;;;;;;;9.48;9.10;;;;;;;;;;4191673;28;20098;-58
2023/05/23 05:37:57;;;;;;;8.25;7.85;;;;;;;;;;4191197;28;20140;-58
2023/05/23 05:40:17;;;;;;;8.77;8.13;;;;;;;;;;4191563;28;20235;-59
2023/05/23 05:42:37;;;;;;;8.93;8.48;;;;;;;;;;4190982;28;20424;-58
2023/05/23 05:44:57;;;;;;;8.23;7.82;;;;;;;;;;4190877;28;20241;-59
2023/05/23 05:47:17;;;;;;;8.52;7.97;;;;;;;;;;4190300;28;20064;-59
2023/05/23 05:49:38;;;;;;;9.35;8.68;;;;;;;;;;4190593;28;20075;-58
2023/05/23 05:51:58;;;;;;;8.55;8.07;;;;;;;;;;4190142;28;20083;-58
2023/05/23 05:54:19;;;;;;;6.55;6.15;;;;;;;;;;4190222;28;20153;-58
2023/05/23 05:56:39;;;;;;;8.38;7.97;;;;;;;;;;4190345;28;20056;-58
2023/05/23 05:58:59;;;;;;;8.00;7.65;;;;;;;;;;4190022;28;20052;-58
2023/05/23 06:01:19;;;;;;;9.48;9.05;;;;;;;;;;4189957;28;20083;-58
2023/05/23 06:03:40;;;;;;;8.15;7.78;;;;;;;;;;4189568;28;20072;-59
2023/05/23 06:06:00;;;;;;;8.73;8.20;;;;;;;;;;4190372;28;20048;-58
2023/05/23 06:08:20;;;;;;;8.48;7.82;;;;;;;;;;4191202;28;20059;-58
2023/05/23 06:10:40;;;;;;;7.80;7.40;;;;;;;;;;4191698;28;20047;-58
2023/05/23 06:13:01;;;;;;;7.43;7.13;;;;;;;;;;4194115;28;20134;-59
2023/05/23 06:15:21;;;;;;;8.95;8.32;;;;;;;;;;4191043;28;20047;-58
2023/05/23 06:17:43;;;;;;;7.45;7.25;;;;;;;;;;4190210;28;20235;-58
2023/05/23 06:20:04;;;;;;;7.32;6.93;;;;;;;;;;4192519;28;20150;-58
2023/05/23 06:22:24;;;;;;;8.20;7.68;;;;;;;;;;4192030;28;20082;-58
2023/05/23 06:24:45;;;;;;;7.25;7.03;;;;;;;;;;4174803;28;20091;-58
2023/05/23 06:27:05;;;;;;;8.25;7.95;;;;;;;;;;4190592;28;20086;-58
2023/05/23 06:29:25;;;;;;;7.05;6.68;;;;;;;;;;4192663;28;20116;-59
2023/05/23 06:31:46;;;;;;;6.78;6.40;;;;;;;;;;4191804;28;20073;-59
2023/05/23 06:34:06;;;;;;;6.50;6.05;;;;;;;;;;4191119;28;20363;-59
2023/05/23 06:36:26;;;;;;;6.78;6.60;;;;;;;;;;4189401;28;20363;-59
2023/05/23 06:38:47;;;;;;;6.05;5.85;;;;;;;;;;4188757;28;20100;-59
2023/05/23 06:41:07;;;;;;;6.38;6.07;;;;;;;;;;4189529;28;20048;-59
2023/05/23 06:43:27;;;;;;;5.13;4.93;;;;;;;;;;4189941;28;20311;-59
2023/05/23 06:45:47;;;;;;;5.88;5.78;;;;;;;;;;4189378;28;20048;-59
2023/05/23 06:48:08;;;;;;;5.72;5.18;;;;;;;;;;4189604;28;20055;-60
2023/05/23 06:50:28;;;;;;;6.10;6.00;;;;;;;;;;4188733;28;20048;-59
2023/05/23 06:52:49;;;;;;;6.28;6.07;;;;;;;;;;4188587;28;20248;-59
2023/05/23 06:55:13;;;;;;;8.27;5.80;;;;;;;;;;4190628;28;20036;-59
2023/05/23 06:57:33;;;;;;;6.13;5.57;;;;;;;;;;4191329;28;20128;-59
2023/05/23 06:59:53;;;;;;;5.13;4.82;;;;;;;;;;4189019;28;20072;-59
2023/05/23 07:02:13;;;;;;;5.35;5.25;;;;;;;;;;4189866;28;20047;-59
2023/05/23 07:04:34;;;;;;;5.82;5.40;;;;;;;;;;4191241;28;20047;-59
2023/05/23 07:06:54;;;;;;;5.55;5.25;;;;;;;;;;4191605;28;20099;-59
2023/05/23 07:09:15;;;;;;;5.60;5.28;;;;;;;;;;4189270;28;20072;-59
2023/05/23 07:11:35;;;;;;;5.28;5.07;;;;;;;;;;4190070;28;20130;-59
2023/05/23 07:13:56;;;;;;;5.03;4.63;;;;;;;;;;4191319;28;20091;-59
2023/05/23 07:16:16;;;;;;;4.80;4.60;;;;;;;;;;4189714;28;20056;-59
2023/05/23 07:18:36;;;;;;;4.05;3.90;;;;;;;;;;4187695;28;20366;-60
2023/05/23 07:20:58;;;;;;;3.95;3.75;;;;;;;;;;4190577;28;20068;-60
2023/05/23 07:23:18;;;;;;;4.00;3.90;;;;;;;;;;4190465;28;20043;-60
2023/05/23 07:25:39;;;;;;;4.50;3.28;;;;;;;;;;4173760;28;20052;-60
2023/05/23 07:28:07;;;;;;;3.72;3.47;;;;;;;;;;4189624;28;20420;-59
2023/05/23 07:30:27;;;;;;;2.83;2.25;;;;;;;;;;4189443;28;20048;-59
2023/05/23 07:32:47;;;;;;;2.80;2.70;;;;;;;;;;4190367;28;20078;-59
2023/05/23 07:35:07;;;;;;;3.25;3.15;;;;;;;;;;4189351;28;20052;-59
2023/05/23 07:37:28;;;;;;;2.83;2.72;;;;;;;;;;4189525;28;20048;-59
2023/05/23 07:39:48;;;;;;;2.97;2.88;;;;;;;;;;4189151;28;20390;-59
2023/05/23 07:42:08;;;;;;;3.63;2.63;;;;;;;;;;4188841;28;20064;-60
2023/05/23 07:44:29;;;;;;;2.55;2.30;;;;;;;;;;4188811;28;20071;-60
2023/05/23 07:46:49;;;;;;;2.90;2.60;;;;;;;;;;4189581;28;20040;-60
2023/05/23 07:49:09;;;;;;;4.90;2.03;;;;;;;;;;4192868;28;20051;-60
2023/05/23 07:51:30;;;;;;;2.40;2.20;;;;;;;;;;4194880;28;20109;-59
2023/05/23 07:53:50;;;;;;;3.42;2.28;;;;;;;;;;4189207;28;20039;-60
2023/05/23 07:56:11;;;;;;;9.45;2.33;;;;;;;;;;4191573;28;20055;-60
2023/05/23 07:58:31;;;;;;;4.40;2.20;;;;;;;;;;4193654;28;20047;-61
2023/05/23 08:00:52;;;;;;;3.08;2.38;;;;;;;;;;4194957;28;20116;-60
2023/05/23 08:03:13;;;;;;;2.40;2.10;;;;;;;;;;4187877;28;20052;-59
2023/05/23 08:05:33;;;;;;;2.58;2.50;;;;;;;;;;4188217;28;20095;-60
2023/05/23 08:07:54;;;;;;;3.03;2.67;;;;;;;;;;4188392;28;20099;-60
2023/05/23 08:10:14;;;;;;;2.10;2.00;;;;;;;;;;4186828;28;20404;-60
2023/05/23 08:12:34;;;;;;;1.98;1.88;;;;;;;;;;4188695;28;20059;-60
2023/05/23 08:14:54;;;;;;;2.13;1.67;;;;;;;;;;4188860;28;20140;-60
2023/05/23 08:17:15;;;;;;;3.08;2.50;;;;;;;;;;4177262;28;20056;-60
2023/05/23 08:19:35;;;;;;;3.58;2.20;;;;;;;;;;4192096;28;20048;-60
2023/05/23 08:21:56;;;;;;;3.15;2.45;;;;;;;;;;4191823;28;20184;-60
2023/05/23 08:24:16;;;;;;;2.50;2.30;;;;;;;;;;4192841;28;20244;-59
2023/05/23 08:26:36;;;;;;;2.20;2.03;;;;;;;;;;4192972;28;20052;-59
2023/05/23 08:28:57;;;;;;;2.25;2.15;;;;;;;;;;4191460;28;20059;-60
2023/05/23 08:31:17;;;;;;;2.92;1.73;;;;;;;;;;4193076;28;20055;-60
2023/05/23 08:33:37;;;;;;;1.90;1.80;;;;;;;;;;4192411;28;20083;-60
2023/05/23 08:35:58;;;;;;;1.52;1.42;;;;;;;;;;4191614;28;20035;-60
2023/05/23 08:38:20;;;;;;;4.35;1.73;;;;;;;;;;4189888;28;20108;-60
2023/05/23 08:40:40;;;;;;;;;;;;;;;;;;4192404;28;20043;-60
2023/05/23 08:43:01;;;;;;;2.40;1.60;;;;;;;;;;4194000;28;19923;-60
2023/05/23 08:45:22;;;;;;;3.05;1.58;;;;;;;;;;4190294;28;20108;-60
2023/05/23 08:47:43;;;;;;;1.83;1.73;;;;;;;;;;4190157;28;20083;-60
2023/05/23 08:50:07;;;;;;;7.45;1.63;;;;;;;;;;4193255;28;20113;-60
2023/05/23 08:52:27;;;;;;;3.00;2.30;;;;;;;;;;4193728;28;20052;-60
2023/05/23 08:54:47;;;;;;;1.80;1.70;;;;;;;;;;4190977;28;20076;-60
2023/05/23 08:57:07;;;;;;;2.08;1.40;;;;;;;;;;4190917;28;20482;-60
2023/05/23 08:59:29;;;;;;;4.43;1.75;;;;;;;;;;4177506;28;20045;-60
2023/05/23 09:01:51;;;;;;;2.10;2.00;;;;;;;;;;4192380;28;20052;-60
2023/05/23 09:04:12;;;;;;;1.45;1.45;;;;;;;;;;4191080;28;20048;-60
2023/05/23 09:06:32;;;;;;;1.30;1.30;;;;;;;;;;4191619;28;20056;-60
2023/05/23 09:08:52;;;;;;;3.78;1.95;;;;;;;;;;4191744;28;20047;-60
2023/05/23 09:11:13;;;;;;;1.55;1.45;;;;;;;;;;4191179;28;20052;-60
2023/05/23 09:13:34;;;;;;;1.83;1.73;;;;;;;;;;4191108;28;20112;-60
2023/05/23 09:16:01;;;;;;;1.27;1.27;;;;;;;;;;4191109;28;20044;-60
2023/05/23 09:18:21;;;;;;;1.40;1.30;;;;;;;;;;4190824;28;20048;-60
2023/05/23 09:20:43;;;;;;;2.78;1.40;;;;;;;;;;4190509;28;20048;-60
2023/05/23 09:23:05;;;;;;;2.90;1.38;;;;;;;;;;4189731;28;20278;-60
2023/05/23 09:25:26;;;;;;;1.30;1.20;;;;;;;;;;4190312;28;20051;-60
2023/05/23 09:27:46;;;;;;;1.20;1.10;;;;;;;;;;4189681;28;20095;-60
2023/05/23 09:30:08;;;;;;;1.60;1.50;;;;;;;;;;4188299;28;20048;-60
2023/05/23 09:32:29;;;;;;;4.22;1.40;;;;;;;;;;4190277;28;20275;-60
2023/05/23 09:34:57;;;;;;;4.43;1.73;;;;;;;;;;4190641;28;20393;-61
2023/05/23 09:37:17;;;;;;;2.35;1.50;;;;;;;;;;4190679;28;20060;-60
2023/05/23 09:39:38;;;;;;;2.90;1.40;;;;;;;;;;4191003;28;20048;-60
2023/05/23 09:41:59;;;;;;;2.00;1.42;;;;;;;;;;4189304;28;20051;-59
2023/05/23 09:44:23;;;;;;;1.35;1.25;;;;;;;;;;4191224;28;20317;-60
2023/05/23 09:46:43;;;;;;;1.38;1.33;;;;;;;;;;4189720;28;20091;-60
2023/05/23 09:49:14;;;;;;;2.08;1.98;;;;;;;;;;4190740;28;20059;-60
2023/05/23 09:51:35;;;;;;;5.90;1.88;;;;;;;;;;4189975;28;20048;-59
2023/05/23 09:53:55;;;;;;;2.83;1.52;;;;;;;;;;4192124;28;20237;-60
2023/05/23 09:56:16;;;;;;;2.35;1.50;;;;;;;;;;4174939;28;20048;-60
2023/05/23 09:58:39;;;;;;;2.25;1.27;;;;;;;;;;4191313;28;20044;-59
2023/05/23 10:01:02;;;;;;;1.40;1.30;;;;;;;;;;4191863;28;20055;-59
2023/05/23 10:03:43;;;;;;;1.98;1.20;;;;;;;;;;4190337;28;20086;-60
2023/05/23 10:06:17;;;;;;;4.53;1.90;;;;;;;;;;4191148;28;20052;-60
2023/05/23 10:08:43;;;;;;;4.95;2.05;;;;;;;;;;4189736;28;20180;-59
2023/05/23 10:11:04;;;;;;;1.40;1.30;;;;;;;;;;4192451;28;20059;-60
2023/05/23 10:13:28;;;;;;;4.68;2.35;;;;;;;;;;4190944;28;20095;-59
2023/05/23 10:15:49;;;;;;;1.55;1.52;;;;;;;;;;4192760;28;20374;-59
2023/05/23 10:18:17;;;;;;;2.05;1.50;;;;;;;;;;4188775;28;20406;-59
2023/05/23 10:20:39;;;;;;;1.90;1.80;;;;;;;;;;4191186;28;20109;-60
2023/05/23 10:23:01;;;;;;;1.52;1.42;;;;;;;;;;4191510;28;20386;-60
2023/05/23 10:25:21;;;;;;;1.67;1.55;;;;;;;;;;4192796;28;20244;-59
2023/05/23 10:27:41;;;;;;;1.52;1.42;;;;;;;;;;4190868;28;20082;-60
2023/05/23 10:30:02;;;;;;;1.50;1.35;;;;;;;;;;4189899;28;20052;-60
2023/05/23 10:32:23;;;;;;;1.73;1.50;;;;;;;;;;4191816;28;20170;-59
2023/05/23 10:34:51;;;;;;;2.50;1.35;;;;;;;;;;4190758;28;20068;-60
2023/05/23 10:37:38;;;;;;;2.00;1.38;;;;;;;;;;4178141;28;20127;-60
2023/05/23 10:40:05;;;;;;;2.00;1.30;;;;;;;;;;4189941;28;20079;-60
2023/05/23 10:42:35;;;;;;;1.42;1.30;;;;;;;;;;4190812;28;20059;-59
2023/05/23 10:45:13;;;;;;;3.63;1.20;;;;;;;;;;4189125;28;20081;-60
2023/05/23 10:47:35;;;;;;;1.45;1.35;;;;;;;;;;4189648;28;20048;-60
2023/05/23 10:49:55;;;;;;;1.52;1.30;;;;;;;;;;4190458;28;20095;-60
2023/05/23 10:52:16;;;;;;;1.30;1.20;;;;;;;;;;4188780;28;20134;-60
2023/05/23 10:54:41;;;;;;;2.13;2.03;;;;;;;;;;4187207;28;20047;-60
2023/05/23 10:57:04;;;;;;;1.30;1.30;;;;;;;;;;4187109;28;20379;-59
2023/05/23 10:59:27;;;;;;;2.15;1.30;;;;;;;;;;4189510;28;20072;-59
2023/05/23 11:01:50;;;;;;;1.33;1.20;;;;;;;;;;4188015;28;20112;-60
2023/05/23 11:04:11;;;;;;;2.45;1.30;;;;;;;;;;4188300;28;20232;-59
2023/05/23 11:06:32;;;;;;;1.67;1.30;;;;;;;;;;4187898;28;20084;-60
2023/05/23 11:09:01;;;;;;;2.15;1.05;;;;;;;;;;4189186;28;20109;-60
2023/05/23 11:11:21;;;;;;;2.95;1.20;;;;;;;;;;4189474;28;20075;-60
2023/05/23 11:14:01;;;;;;;1.50;1.38;;;;;;;;;;4189133;28;20044;-60
2023/05/23 11:16:25;;;;;;;2.65;1.50;;;;;;;;;;4190099;28;20091;-60
2023/05/23 11:18:46;;;;;;;1.48;1.38;;;;;;;;;;4190818;28;20075;-60
2023/05/23 11:21:06;;;;;;;2.25;1.40;;;;;;;;;;4189654;28;20139;-59
2023/05/23 11:23:39;;;;;;;2.78;1.70;;;;;;;;;;4190156;28;20084;-60
2023/05/23 11:25:59;;;;;;;1.98;1.40;;;;;;;;;;4191212;28;20139;-59
2023/05/23 11:28:20;;;;;;;1.52;1.42;;;;;;;;;;4191167;28;20044;-60
2023/05/23 11:30:40;;;;;;;2.88;1.50;;;;;;;;;;4189648;28;20048;-60
2023/05/23 11:33:01;;;;;;;2.35;1.45;;;;;;;;;;4191046;28;20059;-60
2023/05/23 11:35:21;;;;;;;1.58;1.23;;;;;;;;;;4191250;28;20079;-60
2023/05/23 11:37:42;;;;;;;1.25;1.10;;;;;;;;;;4191417;28;20056;-60
2023/05/23 11:40:21;;;;;;;2.22;1.13;;;;;;;;;;4187936;28;20120;-61
2023/05/23 11:42:42;;;;;;;5.28;1.13;;;;;;;;;;4191232;28;20151;-59
2023/05/23 11:45:03;;;;;;;2.00;1.07;;;;;;;;;;4193220;28;20051;-60
2023/05/23 11:47:24;;;;;;;1.60;1.48;;;;;;;;;;4190612;28;20398;-60
2023/05/23 11:49:48;;;;;;;3.08;1.10;;;;;;;;;;4189668;28;20052;-59
2023/05/23 11:52:09;;;;;;;1.30;1.20;;;;;;;;;;4194822;28;20048;-59
2023/05/23 11:54:29;;;;;;;3.92;1.10;;;;;;;;;;4196250;28;20405;-59
2023/05/23 11:56:50;;;;;;;1.27;1.10;;;;;;;;;;4191595;28;20052;-59
2023/05/23 11:59:10;;;;;;;1.10;1.10;;;;;;;;;;4194277;28;20043;-59
2023/05/23 12:01:32;;;;;;;1.92;1.58;;;;;;;;;;4194772;28;20068;-59
2023/05/23 12:03:52;;;;;;;3.33;1.30;;;;;;;;;;4195465;28;20074;-59
2023/05/23 12:06:16;;;;;;;2.63;1.40;;;;;;;;;;4192108;28;20052;-59
2023/05/23 12:08:36;;;;;;;1.30;1.20;;;;;;;;;;4194905;28;20052;-58
2023/05/23 12:10:57;;;;;;;3.75;1.10;;;;;;;;;;4192786;28;20052;-59
2023/05/23 12:13:18;;;;;;;1.23;1.00;;;;;;;;;;4192703;28;20393;-58
2023/05/23 12:15:38;;;;;;;2.97;1.00;;;;;;;;;;4192751;28;20047;-58
2023/05/23 12:17:59;;;;;;;1.95;1.00;;;;;;;;;;4192294;28;20043;-59
2023/05/23 12:20:20;;;;;;;2.90;1.00;;;;;;;;;;4190987;28;20043;-59
2023/05/23 12:22:41;;;;;;;1.15;1.10;;;;;;;;;;4176519;28;20131;-59
2023/05/23 12:25:01;;;;;;;2.55;1.20;;;;;;;;;;4191413;28;20130;-59
2023/05/23 12:27:28;;;;;;;3.70;1.30;;;;;;;;;;4191274;28;20067;-59
2023/05/23 12:29:52;;;;;;;1.98;1.20;;;;;;;;;;4190717;28;20097;-59
2023/05/23 12:32:12;;;;;;;3.03;1.17;;;;;;;;;;4189292;28;20044;-59
2023/05/23 12:34:32;;;;;;;2.88;1.10;;;;;;;;;;4189429;28;20113;-59
2023/05/23 12:37:02;;;;;;;1.98;1.88;;;;;;;;;;4191508;28;20064;-59
2023/05/23 12:39:38;;;;;;;1.95;1.85;;;;;;;;;;4189643;28;20052;-58
2023/05/23 12:42:08;;;;;;;2.58;2.13;;;;;;;;;;4190966;28;20051;-58
2023/05/23 12:44:32;;;;;;;3.85;1.50;;;;;;;;;;4190805;28;20282;-58
2023/05/23 12:46:53;;;;;;;2.83;1.50;;;;;;;;;;4190556;28;20094;-58
2023/05/23 12:49:13;;;;;;;1.60;1.60;;;;;;;;;;4190367;28;20274;-58
2023/05/23 12:51:33;;;;;;;1.83;1.73;;;;;;;;;;4190741;28;20079;-58
2023/05/23 12:53:54;;;;;;;4.47;1.60;;;;;;;;;;4192498;28;20043;-58
2023/05/23 12:56:15;;;;;;;1.45;1.33;;;;;;;;;;4193536;28;20055;-59
2023/05/23 12:58:35;;;;;;;1.55;1.45;;;;;;;;;;4190381;28;20044;-58
2023/05/23 13:00:55;;;;;;;3.47;2.17;;;;;;;;;;4174543;28;20403;-58
2023/05/23 13:03:15;;;;;;;1.38;1.35;;;;;;;;;;4193723;28;20358;-58
2023/05/23 13:05:36;;;;;;;2.42;1.77;;;;;;;;;;4180594;28;20272;-58
2023/05/23 13:07:58;;;;;;;1.35;1.35;;;;;;;;;;4190912;28;20052;-58
2023/05/23 13:10:18;;;;;;;1.30;1.30;;;;;;;;;;4191769;28;20059;-58
2023/05/23 13:12:38;;;;;;;1.23;1.23;;;;;;;;;;4194343;28;20048;-58
2023/05/23 13:14:58;;;;;;;3.25;1.40;;;;;;;;;;4192911;28;20067;-58
2023/05/23 13:17:19;;;;;;;2.53;1.30;;;;;;;;;;4190888;28;20055;-58
2023/05/23 13:19:39;;;;;;;1.40;1.30;;;;;;;;;;4191664;28;20036;-58
2023/05/23 13:22:00;;;;;;;1.83;1.50;;;;;;;;;;4194746;28;20078;-58
2023/05/23 13:24:21;;;;;;;1.75;1.65;;;;;;;;;;4193418;28;20098;-58
2023/05/23 13:26:41;;;;;;;1.95;1.75;;;;;;;;;;4190192;28;20076;-58
2023/05/23 13:29:01;;;;;;;1.58;1.48;;;;;;;;;;4192213;28;20099;-56
2023/05/23 13:31:21;;;;;;;2.95;1.50;;;;;;;;;;4194207;28;20078;-56
2023/05/23 13:33:41;;;;;;;1.48;1.48;;;;;;;;;;4191283;28;20248;-56
2023/05/23 13:36:02;;;;;;;2.42;2.22;;;;;;;;;;4190863;28;20047;-56
2023/05/23 13:38:22;;;;;;;3.58;1.88;;;;;;;;;;4192715;28;20112;-57
2023/05/23 13:40:46;;;;;;;2.72;2.00;;;;;;;;;;4192477;28;20048;-56
2023/05/23 13:43:07;;;;;;;2.10;1.52;;;;;;;;;;4191529;28;20132;-56
2023/05/23 13:45:29;;;;;;;1.60;1.55;;;;;;;;;;4188385;28;20071;-56
2023/05/23 13:47:49;;;;;;;1.90;1.80;;;;;;;;;;4190174;28;20236;-56
2023/05/23 13:50:09;;;;;;;5.43;2.42;;;;;;;;;;4189009;28;20056;-56
2023/05/23 13:52:29;;;;;;;1.80;1.63;;;;;;;;;;4189725;28;20237;-55
2023/05/23 13:54:50;;;;;;;2.78;2.10;;;;;;;;;;4189015;28;20383;-56
2023/05/23 13:57:10;;;;;;;2.42;2.33;;;;;;;;;;4182914;28;20056;-56
2023/05/23 13:59:31;;;;;;;2.63;2.00;;;;;;;;;;4190810;28;20078;-56
2023/05/23 14:01:51;;;;;;;1.98;1.88;;;;;;;;;;4189153;28;20267;-56
2023/05/23 14:04:12;;;;;;;2.40;2.20;;;;;;;;;;4191074;28;20047;-56
2023/05/23 14:06:32;;;;;;;5.78;3.05;;;;;;;;;;4189205;28;20082;-56
2023/05/23 14:08:52;;;;;;;3.88;2.05;;;;;;;;;;4190944;28;20051;-56